Voronezh International Airport
UUOO : now visible

Airfield :











YOU CAN JOIN US ON...

 
LOGIN :

Register | Disclaimer

   EN    FR    IT 

 









Legend :    VFR   Marginal VFR   IFR   Intensive IFR   Very Intensive IFR
Visi :
Ceiling :
>= 8 km
>= 3000ft
5 to 8 km
1000 to 3000 ft
1500m to 5 km
500 to 1000 ft
800 to 1500m
200 to 500 ft
< 800m
< 200 ft
Symbols :   Thunderstorms  Fog  Heavy snow  Heavy precipitations  Wind > 20 kt






- Airport Elevation : 514 ft
- IATA code : VOZ


UUOO - Voronezh International

CURRENT METAR :
  • 291130Z 25005MPS CAVOK 04/M04 Q1012 R30/190055 NOSIG RMK QFE745

EXPIRED METARs :
  • 291100Z 26005MPS CAVOK 03/M03 Q1011 R30/190055 NOSIG RMK QFE745
  • 291030Z 25006MPS CAVOK 03/M03 Q1011 R30/190055 NOSIG RMK QFE745
  • 291000Z 25005MPS CAVOK 03/M03 Q1011 R30/190055 NOSIG RMK QFE745
  • 290930Z 24004MPS CAVOK 02/M02 Q1011 R30/190055 NOSIG RMK QFE745
  • 290900Z 25005MPS CAVOK 02/M03 Q1011 R30/190055 NOSIG RMK QFE745

TAF TAF UUOO
Valid from the 29 at 12:00 until the 29 at 21:00 UTC


291059Z 2912/2921 24004MPS CAVOK



MET'MAP, your aeronautical weather chart ! - Copyright ORBIFLY December 2007 - Disclaimer

ORBIFLY MET'MAP TEAM :

Programming & Development : Alexandra Zaïnal
Concept & original design : Baudouin d'Aumeries
Assistance for programming : Marc-Olivier Méhu
Technical & hardware support : Manuel Goepfert

Contact : metmap@orbifly.com




SOURCES & CREDITS :

   NOAA       Earth
Advisory